sensor_id;sensor_type;location;lat;lon;timestamp;temperature;humidity
20158;DHT22;10239;56.820;24.416;2023-02-28T00:01:32;0.30;99.90
20158;DHT22;10239;56.820;24.416;2023-02-28T00:04:00;0.30;99.90
20158;DHT22;10239;56.820;24.416;2023-02-28T00:06:28;0.40;99.90
20158;DHT22;10239;56.820;24.416;2023-02-28T00:08:56;0.40;99.90
20158;DHT22;10239;56.820;24.416;2023-02-28T00:11:24;0.40;99.90
20158;DHT22;10239;56.820;24.416;2023-02-28T00:13:52;0.40;99.90
20158;DHT22;10239;56.820;24.416;2023-02-28T00:16:21;0.40;99.90
20158;DHT22;10239;56.820;24.416;2023-02-28T00:18:50;0.40;99.90
20158;DHT22;10239;56.820;24.416;2023-02-28T00:21:19;0.40;99.90
20158;DHT22;10239;56.820;24.416;2023-02-28T00:23:47;0.40;99.90
20158;DHT22;10239;56.820;24.416;2023-02-28T00:26:15;0.50;99.90
20158;DHT22;10239;56.820;24.416;2023-02-28T00:28:45;0.60;99.90
20158;DHT22;10239;56.820;24.416;2023-02-28T00:31:13;0.60;99.90
20158;DHT22;10239;56.820;24.416;2023-02-28T00:33:40;0.70;99.90
20158;DHT22;10239;56.820;24.416;2023-02-28T00:36:10;0.70;99.90
20158;DHT22;10239;56.820;24.416;2023-02-28T00:38:39;0.70;99.90
20158;DHT22;10239;56.820;24.416;2023-02-28T00:41:07;0.80;99.90
20158;DHT22;10239;56.820;24.416;2023-02-28T00:43:37;0.80;99.90
20158;DHT22;10239;56.820;24.416;2023-02-28T00:46:05;0.80;99.90
20158;DHT22;10239;56.820;24.416;2023-02-28T00:48:33;0.90;99.90
20158;DHT22;10239;56.820;24.416;2023-02-28T00:51:01;1.00;99.90
20158;DHT22;10239;56.820;24.416;2023-02-28T00:53:30;1.00;99.90
20158;DHT22;10239;56.820;24.416;2023-02-28T00:56:00;1.00;99.90
20158;DHT22;10239;56.820;24.416;2023-02-28T00:58:28;1.00;99.90
20158;DHT22;10239;56.820;24.416;2023-02-28T01:00:57;1.00;99.90
20158;DHT22;10239;56.820;24.416;2023-02-28T01:03:24;1.00;99.90
20158;DHT22;10239;56.820;24.416;2023-02-28T01:05:52;1.00;99.90
20158;DHT22;10239;56.820;24.416;2023-02-28T01:08:23;0.90;99.90
20158;DHT22;10239;56.820;24.416;2023-02-28T01:10:51;0.90;99.90
20158;DHT22;10239;56.820;24.416;2023-02-28T01:13:20;1.00;99.90
20158;DHT22;10239;56.820;24.416;2023-02-28T01:15:53;1.00;99.90
20158;DHT22;10239;56.820;24.416;2023-02-28T01:18:22;1.10;99.90
20158;DHT22;10239;56.820;24.416;2023-02-28T01:20:50;1.10;99.90
20158;DHT22;10239;56.820;24.416;2023-02-28T01:23:20;1.30;99.90
20158;DHT22;10239;56.820;24.416;2023-02-28T01:25:52;1.30;99.90
20158;DHT22;10239;56.820;24.416;2023-02-28T01:28:20;1.30;99.90
20158;DHT22;10239;56.820;24.416;2023-02-28T01:30:50;1.40;99.90
20158;DHT22;10239;56.820;24.416;2023-02-28T01:33:18;1.30;99.90
20158;DHT22;10239;56.820;24.416;2023-02-28T01:35:46;1.30;99.90
20158;DHT22;10239;56.820;24.416;2023-02-28T01:38:14;1.30;99.90
20158;DHT22;10239;56.820;24.416;2023-02-28T01:40:49;1.20;99.90
20158;DHT22;10239;56.820;24.416;2023-02-28T01:45:49;1.00;99.90
20158;DHT22;10239;56.820;24.416;2023-02-28T01:48:18;1.00;99.90
20158;DHT22;10239;56.820;24.416;2023-02-28T01:50:49;1.00;99.90
20158;DHT22;10239;56.820;24.416;2023-02-28T01:53:23;0.80;99.90
20158;DHT22;10239;56.820;24.416;2023-02-28T01:55:54;0.80;99.90
20158;DHT22;10239;56.820;24.416;2023-02-28T01:58:22;0.60;99.90
20158;DHT22;10239;56.820;24.416;2023-02-28T02:00:50;0.60;99.90
20158;DHT22;10239;56.820;24.416;2023-02-28T02:03:20;0.70;99.90
20158;DHT22;10239;56.820;24.416;2023-02-28T02:05:48;0.60;99.90
20158;DHT22;10239;56.820;24.416;2023-02-28T02:08:25;0.60;99.90
20158;DHT22;10239;56.820;24.416;2023-02-28T02:11:01;0.60;99.90
20158;DHT22;10239;56.820;24.416;2023-02-28T02:16:44;0.50;99.90
20158;DHT22;10239;56.820;24.416;2023-02-28T02:19:40;0.50;99.90
20158;DHT22;10239;56.820;24.416;2023-02-28T02:27:50;0.30;99.90
20158;DHT22;10239;56.820;24.416;2023-02-28T02:30:33;0.30;99.90
20158;DHT22;10239;56.820;24.416;2023-02-28T02:35:56;0.30;99.90
20158;DHT22;10239;56.820;24.416;2023-02-28T02:38:33;0.30;99.90
20158;DHT22;10239;56.820;24.416;2023-02-28T02:44:04;0.30;99.90
20158;DHT22;10239;56.820;24.416;2023-02-28T02:46:42;0.20;99.90
20158;DHT22;10239;56.820;24.416;2023-02-28T02:49:28;0.20;99.90
20158;DHT22;10239;56.820;24.416;2023-02-28T02:52:04;0.20;99.90
20158;DHT22;10239;56.820;24.416;2023-02-28T02:54:40;0.20;99.90
20158;DHT22;10239;56.820;24.416;2023-02-28T02:57:13;0.20;99.90
20158;DHT22;10239;56.820;24.416;2023-02-28T02:59:42;0.20;99.90
20158;DHT22;10239;56.820;24.416;2023-02-28T03:02:13;0.10;99.90
20158;DHT22;10239;56.820;24.416;2023-02-28T03:04:53;0.20;99.90
20158;DHT22;10239;56.820;24.416;2023-02-28T03:07:28;0.10;99.90
20158;DHT22;10239;56.820;24.416;2023-02-28T03:09:56;0.20;99.90
20158;DHT22;10239;56.820;24.416;2023-02-28T03:12:40;0.20;99.90
20158;DHT22;10239;56.820;24.416;2023-02-28T03:15:19;0.20;99.90
20158;DHT22;10239;56.820;24.416;2023-02-28T03:18:49;0.30;99.90
20158;DHT22;10239;56.820;24.416;2023-02-28T03:26:07;0.50;99.90
20158;DHT22;10239;56.820;24.416;2023-02-28T03:32:11;0.60;99.90
20158;DHT22;10239;56.820;24.416;2023-02-28T03:34:37;0.70;99.90
20158;DHT22;10239;56.820;24.416;2023-02-28T03:37:11;0.80;99.90
20158;DHT22;10239;56.820;24.416;2023-02-28T03:39:40;0.80;99.90
20158;DHT22;10239;56.820;24.416;2023-02-28T03:42:13;0.90;99.90
20158;DHT22;10239;56.820;24.416;2023-02-28T03:44:58;1.00;99.90
20158;DHT22;10239;56.820;24.416;2023-02-28T03:50:22;1.20;99.90
20158;DHT22;10239;56.820;24.416;2023-02-28T03:52:58;1.10;99.90
20158;DHT22;10239;56.820;24.416;2023-02-28T03:55:40;1.20;99.90
20158;DHT22;10239;56.820;24.416;2023-02-28T03:58:32;1.30;99.90
20158;DHT22;10239;56.820;24.416;2023-02-28T04:01:16;1.30;99.90
20158;DHT22;10239;56.820;24.416;2023-02-28T04:03:46;1.30;99.90
20158;DHT22;10239;56.820;24.416;2023-02-28T04:06:17;1.30;99.90
20158;DHT22;10239;56.820;24.416;2023-02-28T04:08:46;1.30;99.90
20158;DHT22;10239;56.820;24.416;2023-02-28T04:11:51;1.20;99.90
20158;DHT22;10239;56.820;24.416;2023-02-28T04:14:19;1.20;99.90
20158;DHT22;10239;56.820;24.416;2023-02-28T04:16:47;1.10;99.90
20158;DHT22;10239;56.820;24.416;2023-02-28T04:19:15;1.10;99.90
20158;DHT22;10239;56.820;24.416;2023-02-28T04:21:51;1.00;99.90
20158;DHT22;10239;56.820;24.416;2023-02-28T04:24:24;1.00;99.90
20158;DHT22;10239;56.820;24.416;2023-02-28T04:26:54;0.90;99.90
20158;DHT22;10239;56.820;24.416;2023-02-28T04:29:27;0.90;99.90
20158;DHT22;10239;56.820;24.416;2023-02-28T04:31:56;0.80;99.90
20158;DHT22;10239;56.820;24.416;2023-02-28T04:34:29;0.80;99.90
20158;DHT22;10239;56.820;24.416;2023-02-28T04:36:57;0.80;99.90
20158;DHT22;10239;56.820;24.416;2023-02-28T04:39:40;0.80;99.90
20158;DHT22;10239;56.820;24.416;2023-02-28T04:42:09;0.80;99.90
20158;DHT22;10239;56.820;24.416;2023-02-28T04:44:37;0.80;99.90
20158;DHT22;10239;56.820;24.416;2023-02-28T04:47:05;0.90;99.90
20158;DHT22;10239;56.820;24.416;2023-02-28T04:49:33;0.90;99.90
20158;DHT22;10239;56.820;24.416;2023-02-28T04:52:00;0.90;99.90
20158;DHT22;10239;56.820;24.416;2023-02-28T04:54:28;0.90;99.90
20158;DHT22;10239;56.820;24.416;2023-02-28T04:56:56;1.00;99.90
20158;DHT22;10239;56.820;24.416;2023-02-28T04:59:24;1.00;99.90
20158;DHT22;10239;56.820;24.416;2023-02-28T05:01:52;1.00;99.90
20158;DHT22;10239;56.820;24.416;2023-02-28T05:04:20;1.00;99.90
20158;DHT22;10239;56.820;24.416;2023-02-28T05:06:47;1.00;99.90
20158;DHT22;10239;56.820;24.416;2023-02-28T05:09:15;1.10;99.90
20158;DHT22;10239;56.820;24.416;2023-02-28T05:11:43;1.10;99.90
20158;DHT22;10239;56.820;24.416;2023-02-28T05:14:13;1.10;99.90
20158;DHT22;10239;56.820;24.416;2023-02-28T05:16:42;1.10;99.90
20158;DHT22;10239;56.820;24.416;2023-02-28T05:19:09;1.20;99.90
20158;DHT22;10239;56.820;24.416;2023-02-28T05:21:48;1.30;99.90
20158;DHT22;10239;56.820;24.416;2023-02-28T05:24:16;1.30;99.90
20158;DHT22;10239;56.820;24.416;2023-02-28T05:26:52;1.50;99.90
20158;DHT22;10239;56.820;24.416;2023-02-28T05:29:21;1.70;99.90
20158;DHT22;10239;56.820;24.416;2023-02-28T05:31:49;1.70;99.90
20158;DHT22;10239;56.820;24.416;2023-02-28T05:34:17;1.70;99.90
20158;DHT22;10239;56.820;24.416;2023-02-28T05:36:45;1.90;99.90
20158;DHT22;10239;56.820;24.416;2023-02-28T05:39:13;1.90;99.90
20158;DHT22;10239;56.820;24.416;2023-02-28T05:41:42;2.10;99.90
20158;DHT22;10239;56.820;24.416;2023-02-28T05:44:10;2.10;99.90
20158;DHT22;10239;56.820;24.416;2023-02-28T05:46:38;2.20;99.90
20158;DHT22;10239;56.820;24.416;2023-02-28T05:49:06;2.30;99.90
20158;DHT22;10239;56.820;24.416;2023-02-28T05:51:33;2.30;99.90
20158;DHT22;10239;56.820;24.416;2023-02-28T05:54:03;2.40;99.90
20158;DHT22;10239;56.820;24.416;2023-02-28T05:56:32;2.50;99.90
20158;DHT22;10239;56.820;24.416;2023-02-28T05:59:01;2.60;99.90
20158;DHT22;10239;56.820;24.416;2023-02-28T06:01:35;2.70;99.90
20158;DHT22;10239;56.820;24.416;2023-02-28T06:04:06;2.70;99.90
20158;DHT22;10239;56.820;24.416;2023-02-28T06:06:35;2.80;99.90
20158;DHT22;10239;56.820;24.416;2023-02-28T06:09:04;2.90;99.90
20158;DHT22;10239;56.820;24.416;2023-02-28T06:11:33;3.00;99.90
20158;DHT22;10239;56.820;24.416;2023-02-28T06:14:01;3.10;99.90
20158;DHT22;10239;56.820;24.416;2023-02-28T06:16:31;3.10;99.90
20158;DHT22;10239;56.820;24.416;2023-02-28T06:19:02;3.20;99.90
20158;DHT22;10239;56.820;24.416;2023-02-28T06:21:30;3.20;99.90
20158;DHT22;10239;56.820;24.416;2023-02-28T06:23:59;3.20;99.90
20158;DHT22;10239;56.820;24.416;2023-02-28T06:26:27;3.30;99.90
20158;DHT22;10239;56.820;24.416;2023-02-28T06:28:55;3.40;99.90
20158;DHT22;10239;56.820;24.416;2023-02-28T06:31:22;3.40;99.90
20158;DHT22;10239;56.820;24.416;2023-02-28T06:33:52;3.50;99.90
20158;DHT22;10239;56.820;24.416;2023-02-28T06:36:20;3.60;99.90
20158;DHT22;10239;56.820;24.416;2023-02-28T06:38:48;3.70;99.90
20158;DHT22;10239;56.820;24.416;2023-02-28T06:41:26;3.80;99.90
20158;DHT22;10239;56.820;24.416;2023-02-28T06:43:55;3.80;99.90
20158;DHT22;10239;56.820;24.416;2023-02-28T06:46:23;3.80;99.90
20158;DHT22;10239;56.820;24.416;2023-02-28T06:48:51;3.90;99.90
20158;DHT22;10239;56.820;24.416;2023-02-28T06:51:20;4.00;99.90
20158;DHT22;10239;56.820;24.416;2023-02-28T06:53:50;4.10;99.90
20158;DHT22;10239;56.820;24.416;2023-02-28T06:56:18;4.10;99.90
20158;DHT22;10239;56.820;24.416;2023-02-28T06:58:49;4.20;99.90
20158;DHT22;10239;56.820;24.416;2023-02-28T07:01:18;4.40;99.90
20158;DHT22;10239;56.820;24.416;2023-02-28T07:03:46;4.60;99.90
20158;DHT22;10239;56.820;24.416;2023-02-28T07:06:24;4.60;99.90
20158;DHT22;10239;56.820;24.416;2023-02-28T07:08:53;5.10;99.90
20158;DHT22;10239;56.820;24.416;2023-02-28T07:11:22;5.60;99.90
20158;DHT22;10239;56.820;24.416;2023-02-28T07:13:54;5.60;99.90
20158;DHT22;10239;56.820;24.416;2023-02-28T07:16:23;5.90;99.90
20158;DHT22;10239;56.820;24.416;2023-02-28T07:18:54;6.40;99.90
20158;DHT22;10239;56.820;24.416;2023-02-28T07:21:22;6.40;99.90
20158;DHT22;10239;56.820;24.416;2023-02-28T07:23:50;6.10;99.90
20158;DHT22;10239;56.820;24.416;2023-02-28T07:26:20;6.00;99.90
20158;DHT22;10239;56.820;24.416;2023-02-28T07:28:48;5.90;99.90
20158;DHT22;10239;56.820;24.416;2023-02-28T07:31:17;6.00;99.90
20158;DHT22;10239;56.820;24.416;2023-02-28T07:33:45;6.50;99.90
20158;DHT22;10239;56.820;24.416;2023-02-28T07:36:15;6.90;99.90
20158;DHT22;10239;56.820;24.416;2023-02-28T07:38:45;7.10;99.90
20158;DHT22;10239;56.820;24.416;2023-02-28T07:41:17;8.60;99.90
20158;DHT22;10239;56.820;24.416;2023-02-28T07:43:45;10.30;99.90
20158;DHT22;10239;56.820;24.416;2023-02-28T07:46:15;11.70;99.90
20158;DHT22;10239;56.820;24.416;2023-02-28T07:48:44;12.90;99.90
20158;DHT22;10239;56.820;24.416;2023-02-28T07:51:11;13.70;99.90
20158;DHT22;10239;56.820;24.416;2023-02-28T07:53:39;14.10;99.90
20158;DHT22;10239;56.820;24.416;2023-02-28T07:56:07;14.60;99.90
20158;DHT22;10239;56.820;24.416;2023-02-28T07:58:34;15.20;99.90
20158;DHT22;10239;56.820;24.416;2023-02-28T08:01:10;14.90;99.90
20158;DHT22;10239;56.820;24.416;2023-02-28T08:03:38;15.20;99.90
20158;DHT22;10239;56.820;24.416;2023-02-28T08:06:08;15.50;99.90
20158;DHT22;10239;56.820;24.416;2023-02-28T08:08:42;15.50;99.90
20158;DHT22;10239;56.820;24.416;2023-02-28T08:11:10;15.60;99.90
20158;DHT22;10239;56.820;24.416;2023-02-28T08:13:38;16.00;99.90
20158;DHT22;10239;56.820;24.416;2023-02-28T08:16:08;16.20;99.90
20158;DHT22;10239;56.820;24.416;2023-02-28T08:18:36;15.90;99.90
20158;DHT22;10239;56.820;24.416;2023-02-28T08:21:10;16.50;99.90
20158;DHT22;10239;56.820;24.416;2023-02-28T09:21:36;15.50;99.90
20158;DHT22;10239;56.820;24.416;2023-02-28T09:24:13;15.50;99.90
20158;DHT22;10239;56.820;24.416;2023-02-28T09:26:51;15.90;99.90
20158;DHT22;10239;56.820;24.416;2023-02-28T09:29:30;16.30;99.90
20158;DHT22;10239;56.820;24.416;2023-02-28T09:32:02;16.50;99.90
20158;DHT22;10239;56.820;24.416;2023-02-28T09:35:07;16.90;99.90
20158;DHT22;10239;56.820;24.416;2023-02-28T09:38:22;17.00;99.90
20158;DHT22;10239;56.820;24.416;2023-02-28T09:41:00;16.80;99.90
20158;DHT22;10239;56.820;24.416;2023-02-28T09:43:33;16.60;99.90
20158;DHT22;10239;56.820;24.416;2023-02-28T09:46:32;16.70;99.90
20158;DHT22;10239;56.820;24.416;2023-02-28T09:49:25;16.00;99.90
20158;DHT22;10239;56.820;24.416;2023-02-28T09:52:21;16.20;99.90
20158;DHT22;10239;56.820;24.416;2023-02-28T09:54:52;16.20;99.90
20158;DHT22;10239;56.820;24.416;2023-02-28T09:57:37;16.20;99.90
20158;DHT22;10239;56.820;24.416;2023-02-28T10:00:40;16.40;99.90
20158;DHT22;10239;56.820;24.416;2023-02-28T10:06:29;16.70;99.90
20158;DHT22;10239;56.820;24.416;2023-02-28T10:11:39;16.30;99.90
20158;DHT22;10239;56.820;24.416;2023-02-28T10:14:24;15.60;99.90
20158;DHT22;10239;56.820;24.416;2023-02-28T10:17:39;14.70;99.90
20158;DHT22;10239;56.820;24.416;2023-02-28T10:20:28;13.80;99.90
20158;DHT22;10239;56.820;24.416;2023-02-28T10:23:31;13.30;99.90
20158;DHT22;10239;56.820;24.416;2023-02-28T10:26:17;13.40;99.90
20158;DHT22;10239;56.820;24.416;2023-02-28T10:28:48;13.30;99.90
20158;DHT22;10239;56.820;24.416;2023-02-28T10:31:19;13.10;99.90
20158;DHT22;10239;56.820;24.416;2023-02-28T10:33:48;13.20;99.90
20158;DHT22;10239;56.820;24.416;2023-02-28T10:36:18;13.20;99.90
20158;DHT22;10239;56.820;24.416;2023-02-28T10:38:48;13.40;99.90
20158;DHT22;10239;56.820;24.416;2023-02-28T10:41:32;13.30;99.90
20158;DHT22;10239;56.820;24.416;2023-02-28T10:44:21;13.10;99.90
20158;DHT22;10239;56.820;24.416;2023-02-28T10:46:50;12.90;99.90
20158;DHT22;10239;56.820;24.416;2023-02-28T10:49:24;13.00;99.90
20158;DHT22;10239;56.820;24.416;2023-02-28T10:51:59;13.00;99.90
20158;DHT22;10239;56.820;24.416;2023-02-28T10:54:34;12.90;99.90
20158;DHT22;10239;56.820;24.416;2023-02-28T10:59:51;13.00;99.90
20158;DHT22;10239;56.820;24.416;2023-02-28T11:02:38;12.90;99.90
20158;DHT22;10239;56.820;24.416;2023-02-28T11:05:31;12.60;99.90
20158;DHT22;10239;56.820;24.416;2023-02-28T11:08:17;12.10;99.90
20158;DHT22;10239;56.820;24.416;2023-02-28T11:10:53;11.30;99.90
20158;DHT22;10239;56.820;24.416;2023-02-28T11:13:28;10.60;99.90
20158;DHT22;10239;56.820;24.416;2023-02-28T11:16:00;10.30;99.90
20158;DHT22;10239;56.820;24.416;2023-02-28T11:21:07;10.30;99.90
20158;DHT22;10239;56.820;24.416;2023-02-28T11:23:39;10.40;99.90
20158;DHT22;10239;56.820;24.416;2023-02-28T11:26:08;10.40;99.90
20158;DHT22;10239;56.820;24.416;2023-02-28T11:28:41;10.40;99.90
20158;DHT22;10239;56.820;24.416;2023-02-28T11:33:49;11.00;99.90
20158;DHT22;10239;56.820;24.416;2023-02-28T11:36:23;10.90;99.90
20158;DHT22;10239;56.820;24.416;2023-02-28T11:39:04;11.30;99.90
20158;DHT22;10239;56.820;24.416;2023-02-28T11:52:59;10.50;99.90
20158;DHT22;10239;56.820;24.416;2023-02-28T11:55:36;10.30;99.90
20158;DHT22;10239;56.820;24.416;2023-02-28T11:58:42;10.20;99.90
20158;DHT22;10239;56.820;24.416;2023-02-28T12:01:32;10.20;99.90
20158;DHT22;10239;56.820;24.416;2023-02-28T12:07:19;10.10;99.90
20158;DHT22;10239;56.820;24.416;2023-02-28T12:12:38;9.50;99.90
20158;DHT22;10239;56.820;24.416;2023-02-28T12:21:21;9.00;99.90
20158;DHT22;10239;56.820;24.416;2023-02-28T12:24:16;8.90;99.90
20158;DHT22;10239;56.820;24.416;2023-02-28T12:26:50;8.90;99.90
20158;DHT22;10239;56.820;24.416;2023-02-28T12:29:25;8.80;99.90
20158;DHT22;10239;56.820;24.416;2023-02-28T12:32:15;8.90;99.90
20158;DHT22;10239;56.820;24.416;2023-02-28T12:40:33;9.10;99.90
20158;DHT22;10239;56.820;24.416;2023-02-28T12:43:08;9.00;99.90
20158;DHT22;10239;56.820;24.416;2023-02-28T12:45:57;9.00;99.90
20158;DHT22;10239;56.820;24.416;2023-02-28T12:48:43;8.90;99.90
20158;DHT22;10239;56.820;24.416;2023-02-28T12:51:15;8.90;99.90
20158;DHT22;10239;56.820;24.416;2023-02-28T12:54:04;9.00;99.90
20158;DHT22;10239;56.820;24.416;2023-02-28T13:10:54;8.60;99.90
20158;DHT22;10239;56.820;24.416;2023-02-28T13:13:28;8.50;99.90
20158;DHT22;10239;56.820;24.416;2023-02-28T13:16:03;8.50;99.90
20158;DHT22;10239;56.820;24.416;2023-02-28T13:18:37;8.50;99.90
20158;DHT22;10239;56.820;24.416;2023-02-28T13:21:09;8.40;99.90
20158;DHT22;10239;56.820;24.416;2023-02-28T13:23:41;8.50;99.90
20158;DHT22;10239;56.820;24.416;2023-02-28T13:39:53;7.90;99.90
20158;DHT22;10239;56.820;24.416;2023-02-28T13:47:36;7.80;99.90
20158;DHT22;10239;56.820;24.416;2023-02-28T13:59:37;7.90;99.90
20158;DHT22;10239;56.820;24.416;2023-02-28T14:02:17;7.90;99.90
20158;DHT22;10239;56.820;24.416;2023-02-28T14:05:01;7.90;99.90
20158;DHT22;10239;56.820;24.416;2023-02-28T14:07:50;7.70;99.90
20158;DHT22;10239;56.820;24.416;2023-02-28T14:10:29;7.80;99.90
20158;DHT22;10239;56.820;24.416;2023-02-28T14:13:00;7.80;99.90
20158;DHT22;10239;56.820;24.416;2023-02-28T14:18:36;7.70;99.90
20158;DHT22;10239;56.820;24.416;2023-02-28T14:27:06;7.70;99.90
20158;DHT22;10239;56.820;24.416;2023-02-28T14:33:00;7.50;99.90
20158;DHT22;10239;56.820;24.416;2023-02-28T14:38:24;7.50;99.90
20158;DHT22;10239;56.820;24.416;2023-02-28T14:40:54;7.50;99.90
20158;DHT22;10239;56.820;24.416;2023-02-28T14:43:24;7.30;99.90
20158;DHT22;10239;56.820;24.416;2023-02-28T14:45:58;7.40;99.90
20158;DHT22;10239;56.820;24.416;2023-02-28T14:48:26;7.40;99.90
20158;DHT22;10239;56.820;24.416;2023-02-28T14:50:59;7.40;99.90
20158;DHT22;10239;56.820;24.416;2023-02-28T14:53:36;7.30;99.90
20158;DHT22;10239;56.820;24.416;2023-02-28T14:56:05;7.30;99.90
20158;DHT22;10239;56.820;24.416;2023-02-28T14:58:33;7.30;99.90
20158;DHT22;10239;56.820;24.416;2023-02-28T15:01:03;7.30;99.90
20158;DHT22;10239;56.820;24.416;2023-02-28T15:03:38;7.10;99.90
20158;DHT22;10239;56.820;24.416;2023-02-28T15:06:16;7.10;99.90
20158;DHT22;10239;56.820;24.416;2023-02-28T15:08:45;7.00;99.90
20158;DHT22;10239;56.820;24.416;2023-02-28T15:11:17;7.10;99.90
20158;DHT22;10239;56.820;24.416;2023-02-28T15:13:51;7.00;99.90
20158;DHT22;10239;56.820;24.416;2023-02-28T15:19:05;6.80;99.90
20158;DHT22;10239;56.820;24.416;2023-02-28T15:21:36;6.80;99.90
20158;DHT22;10239;56.820;24.416;2023-02-28T15:24:21;6.70;99.90
20158;DHT22;10239;56.820;24.416;2023-02-28T15:26:56;6.60;99.90
20158;DHT22;10239;56.820;24.416;2023-02-28T15:29:26;6.60;99.90
20158;DHT22;10239;56.820;24.416;2023-02-28T15:32:04;6.60;99.90
20158;DHT22;10239;56.820;24.416;2023-02-28T15:34:44;6.60;99.90
20158;DHT22;10239;56.820;24.416;2023-02-28T15:40:26;6.40;99.90
20158;DHT22;10239;56.820;24.416;2023-02-28T15:45:55;6.30;99.90
20158;DHT22;10239;56.820;24.416;2023-02-28T15:48:51;6.30;99.90
20158;DHT22;10239;56.820;24.416;2023-02-28T15:51:46;6.10;99.90
20158;DHT22;10239;56.820;24.416;2023-02-28T16:01:41;5.80;99.90
20158;DHT22;10239;56.820;24.416;2023-02-28T16:04:33;5.70;99.90
20158;DHT22;10239;56.820;24.416;2023-02-28T16:11:03;5.50;99.90
20158;DHT22;10239;56.820;24.416;2023-02-28T16:14:01;5.50;99.90
20158;DHT22;10239;56.820;24.416;2023-02-28T16:22:31;5.50;99.90
20158;DHT22;10239;56.820;24.416;2023-02-28T16:25:46;5.30;99.90
20158;DHT22;10239;56.820;24.416;2023-02-28T16:28:52;5.20;99.90
20158;DHT22;10239;56.820;24.416;2023-02-28T16:31:39;5.30;99.90
20158;DHT22;10239;56.820;24.416;2023-02-28T16:34:24;5.30;99.90
20158;DHT22;10239;56.820;24.416;2023-02-28T16:36:52;5.30;99.90
20158;DHT22;10239;56.820;24.416;2023-02-28T16:39:22;5.20;99.90
20158;DHT22;10239;56.820;24.416;2023-02-28T16:44:58;5.20;99.90
20158;DHT22;10239;56.820;24.416;2023-02-28T16:47:57;5.20;99.90
20158;DHT22;10239;56.820;24.416;2023-02-28T16:50:42;5.20;99.90
20158;DHT22;10239;56.820;24.416;2023-02-28T16:53:21;5.20;99.90
20158;DHT22;10239;56.820;24.416;2023-02-28T16:55:53;5.30;99.90
20158;DHT22;10239;56.820;24.416;2023-02-28T16:58:21;5.30;99.90
20158;DHT22;10239;56.820;24.416;2023-02-28T17:00:51;5.20;99.90
20158;DHT22;10239;56.820;24.416;2023-02-28T17:03:27;5.20;99.90
20158;DHT22;10239;56.820;24.416;2023-02-28T17:08:52;5.10;99.90
20158;DHT22;10239;56.820;24.416;2023-02-28T17:11:21;5.10;99.90
20158;DHT22;10239;56.820;24.416;2023-02-28T17:13:50;5.10;99.90
20158;DHT22;10239;56.820;24.416;2023-02-28T17:16:30;5.10;99.90
20158;DHT22;10239;56.820;24.416;2023-02-28T17:19:04;5.00;99.90
20158;DHT22;10239;56.820;24.416;2023-02-28T17:21:41;5.00;99.90
20158;DHT22;10239;56.820;24.416;2023-02-28T17:24:24;5.00;99.90
20158;DHT22;10239;56.820;24.416;2023-02-28T17:27:05;4.90;99.90
20158;DHT22;10239;56.820;24.416;2023-02-28T17:29:40;4.90;99.90
20158;DHT22;10239;56.820;24.416;2023-02-28T17:32:13;4.90;99.90
20158;DHT22;10239;56.820;24.416;2023-02-28T20:51:28;3.60;99.90
20158;DHT22;10239;56.820;24.416;2023-02-28T20:54:02;3.70;99.90
20158;DHT22;10239;56.820;24.416;2023-02-28T20:56:45;3.50;99.90
20158;DHT22;10239;56.820;24.416;2023-02-28T20:59:37;3.50;99.90
20158;DHT22;10239;56.820;24.416;2023-02-28T21:02:27;3.60;99.90
20158;DHT22;10239;56.820;24.416;2023-02-28T21:05:01;3.60;99.90
20158;DHT22;10239;56.820;24.416;2023-02-28T21:07:40;3.70;99.90
20158;DHT22;10239;56.820;24.416;2023-02-28T21:13:05;3.80;99.90
20158;DHT22;10239;56.820;24.416;2023-02-28T21:16:09;3.80;99.90
20158;DHT22;10239;56.820;24.416;2023-02-28T21:18:42;4.00;99.90
20158;DHT22;10239;56.820;24.416;2023-02-28T21:21:21;3.80;99.90
20158;DHT22;10239;56.820;24.416;2023-02-28T21:23:58;3.90;99.90
20158;DHT22;10239;56.820;24.416;2023-02-28T21:26:39;3.80;99.90
20158;DHT22;10239;56.820;24.416;2023-02-28T21:29:14;3.60;99.90
20158;DHT22;10239;56.820;24.416;2023-02-28T21:34:44;3.60;99.90
20158;DHT22;10239;56.820;24.416;2023-02-28T21:40:00;3.50;99.90
20158;DHT22;10239;56.820;24.416;2023-02-28T21:42:38;3.40;99.90
20158;DHT22;10239;56.820;24.416;2023-02-28T21:45:14;3.00;99.90
20158;DHT22;10239;56.820;24.416;2023-02-28T21:50:56;3.40;99.90
20158;DHT22;10239;56.820;24.416;2023-02-28T21:53:35;3.30;99.90
20158;DHT22;10239;56.820;24.416;2023-02-28T21:56:11;3.30;99.90
20158;DHT22;10239;56.820;24.416;2023-02-28T21:58:54;3.50;99.90
20158;DHT22;10239;56.820;24.416;2023-02-28T22:01:42;3.30;99.90
20158;DHT22;10239;56.820;24.416;2023-02-28T22:04:21;3.50;99.90
20158;DHT22;10239;56.820;24.416;2023-02-28T22:07:01;3.40;99.90
20158;DHT22;10239;56.820;24.416;2023-02-28T22:09:48;3.30;99.90
20158;DHT22;10239;56.820;24.416;2023-02-28T22:12:23;3.40;99.90
20158;DHT22;10239;56.820;24.416;2023-02-28T22:21:33;3.40;99.90
20158;DHT22;10239;56.820;24.416;2023-02-28T22:24:24;3.30;99.90
20158;DHT22;10239;56.820;24.416;2023-02-28T22:27:01;3.40;99.90
20158;DHT22;10239;56.820;24.416;2023-02-28T22:29:49;3.40;99.90
20158;DHT22;10239;56.820;24.416;2023-02-28T22:32:34;3.40;99.90
20158;DHT22;10239;56.820;24.416;2023-02-28T22:35:35;3.20;99.90
20158;DHT22;10239;56.820;24.416;2023-02-28T22:38:27;3.20;99.90
20158;DHT22;10239;56.820;24.416;2023-02-28T22:41:29;3.10;99.90
20158;DHT22;10239;56.820;24.416;2023-02-28T22:44:23;3.20;99.90
20158;DHT22;10239;56.820;24.416;2023-02-28T22:46:57;3.20;99.90
20158;DHT22;10239;56.820;24.416;2023-02-28T22:52:25;3.00;99.90
20158;DHT22;10239;56.820;24.416;2023-02-28T22:55:15;3.00;99.90
20158;DHT22;10239;56.820;24.416;2023-02-28T22:58:09;3.00;99.90
20158;DHT22;10239;56.820;24.416;2023-02-28T23:03:43;2.90;99.90
20158;DHT22;10239;56.820;24.416;2023-02-28T23:09:38;3.00;99.90
20158;DHT22;10239;56.820;24.416;2023-02-28T23:18:57;3.10;99.90
20158;DHT22;10239;56.820;24.416;2023-02-28T23:41:58;2.70;99.90
